sensor_id;sensor_type;location;lat;lon;timestamp;P1;durP1;ratioP1;P2;durP2;ratioP2
74042;SDS011;62384;53.600;10.040;2023-06-10T00:01:51;12.32;;;3.58;;
74042;SDS011;62384;53.600;10.040;2023-06-10T00:04:20;6.05;;;2.70;;
74042;SDS011;62384;53.600;10.040;2023-06-10T00:06:45;6.72;;;2.58;;
74042;SDS011;62384;53.600;10.040;2023-06-10T00:09:13;6.72;;;2.65;;
74042;SDS011;62384;53.600;10.040;2023-06-10T00:11:39;6.65;;;2.70;;
74042;SDS011;62384;53.600;10.040;2023-06-10T00:14:05;9.20;;;2.75;;
74042;SDS011;62384;53.600;10.040;2023-06-10T00:16:31;5.05;;;2.20;;
74042;SDS011;62384;53.600;10.040;2023-06-10T00:18:58;7.20;;;2.72;;
74042;SDS011;62384;53.600;10.040;2023-06-10T00:21:28;7.23;;;2.40;;
74042;SDS011;62384;53.600;10.040;2023-06-10T00:23:55;9.68;;;3.00;;
74042;SDS011;62384;53.600;10.040;2023-06-10T00:26:23;11.90;;;3.13;;
74042;SDS011;62384;53.600;10.040;2023-06-10T00:28:49;7.32;;;2.35;;
74042;SDS011;62384;53.600;10.040;2023-06-10T00:31:15;14.35;;;2.65;;
74042;SDS011;62384;53.600;10.040;2023-06-10T00:33:47;7.97;;;2.80;;
74042;SDS011;62384;53.600;10.040;2023-06-10T00:36:27;8.20;;;2.60;;
74042;SDS011;62384;53.600;10.040;2023-06-10T00:38:53;7.10;;;2.53;;
74042;SDS011;62384;53.600;10.040;2023-06-10T00:41:18;7.68;;;2.30;;
74042;SDS011;62384;53.600;10.040;2023-06-10T00:43:47;8.68;;;2.25;;
74042;SDS011;62384;53.600;10.040;2023-06-10T00:46:12;5.63;;;2.30;;
74042;SDS011;62384;53.600;10.040;2023-06-10T00:48:39;5.53;;;2.50;;
74042;SDS011;62384;53.600;10.040;2023-06-10T00:51:06;6.45;;;3.15;;
74042;SDS011;62384;53.600;10.040;2023-06-10T00:53:42;7.15;;;2.20;;
74042;SDS011;62384;53.600;10.040;2023-06-10T00:56:07;9.05;;;2.42;;
74042;SDS011;62384;53.600;10.040;2023-06-10T00:58:32;8.57;;;2.38;;
74042;SDS011;62384;53.600;10.040;2023-06-10T01:00:58;8.98;;;2.60;;
74042;SDS011;62384;53.600;10.040;2023-06-10T01:03:25;6.28;;;2.42;;
74042;SDS011;62384;53.600;10.040;2023-06-10T01:06:11;7.15;;;2.28;;
74042;SDS011;62384;53.600;10.040;2023-06-10T01:08:55;8.10;;;1.85;;
74042;SDS011;62384;53.600;10.040;2023-06-10T01:11:36;5.97;;;2.17;;
74042;SDS011;62384;53.600;10.040;2023-06-10T01:14:07;8.05;;;2.45;;
74042;SDS011;62384;53.600;10.040;2023-06-10T01:16:34;3.25;;;1.92;;
74042;SDS011;62384;53.600;10.040;2023-06-10T01:19:01;9.63;;;2.58;;
74042;SDS011;62384;53.600;10.040;2023-06-10T01:21:27;7.35;;;2.13;;
74042;SDS011;62384;53.600;10.040;2023-06-10T01:23:53;4.03;;;2.60;;
74042;SDS011;62384;53.600;10.040;2023-06-10T01:26:22;4.68;;;2.33;;
74042;SDS011;62384;53.600;10.040;2023-06-10T01:29:07;4.38;;;2.17;;
74042;SDS011;62384;53.600;10.040;2023-06-10T01:31:44;5.63;;;2.20;;
74042;SDS011;62384;53.600;10.040;2023-06-10T01:34:16;6.35;;;2.45;;
74042;SDS011;62384;53.600;10.040;2023-06-10T01:40:08;7.20;;;2.20;;
74042;SDS011;62384;53.600;10.040;2023-06-10T01:42:34;4.03;;;1.48;;
74042;SDS011;62384;53.600;10.040;2023-06-10T01:45:02;8.25;;;1.85;;
74042;SDS011;62384;53.600;10.040;2023-06-10T01:47:27;7.57;;;2.20;;
74042;SDS011;62384;53.600;10.040;2023-06-10T01:49:53;11.27;;;2.17;;
74042;SDS011;62384;53.600;10.040;2023-06-10T01:52:18;4.47;;;2.40;;
74042;SDS011;62384;53.600;10.040;2023-06-10T01:54:43;8.55;;;2.45;;
74042;SDS011;62384;53.600;10.040;2023-06-10T01:57:09;4.18;;;1.90;;
74042;SDS011;62384;53.600;10.040;2023-06-10T01:59:41;7.40;;;1.75;;
74042;SDS011;62384;53.600;10.040;2023-06-10T02:02:09;5.20;;;1.75;;
74042;SDS011;62384;53.600;10.040;2023-06-10T02:04:36;5.68;;;1.95;;
74042;SDS011;62384;53.600;10.040;2023-06-10T02:07:01;4.30;;;2.55;;
74042;SDS011;62384;53.600;10.040;2023-06-10T02:09:37;6.93;;;1.98;;
74042;SDS011;62384;53.600;10.040;2023-06-10T02:12:03;4.13;;;1.48;;
74042;SDS011;62384;53.600;10.040;2023-06-10T02:14:28;4.80;;;1.67;;
74042;SDS011;62384;53.600;10.040;2023-06-10T02:16:54;4.78;;;1.88;;
74042;SDS011;62384;53.600;10.040;2023-06-10T02:19:21;8.48;;;1.90;;
74042;SDS011;62384;53.600;10.040;2023-06-10T02:21:47;3.42;;;1.58;;
74042;SDS011;62384;53.600;10.040;2023-06-10T02:24:13;5.47;;;1.80;;
74042;SDS011;62384;53.600;10.040;2023-06-10T02:26:38;3.88;;;1.88;;
74042;SDS011;62384;53.600;10.040;2023-06-10T02:29:05;6.63;;;1.75;;
74042;SDS011;62384;53.600;10.040;2023-06-10T02:31:35;6.93;;;1.52;;
74042;SDS011;62384;53.600;10.040;2023-06-10T02:34:01;6.28;;;1.77;;
74042;SDS011;62384;53.600;10.040;2023-06-10T02:36:28;7.07;;;1.70;;
74042;SDS011;62384;53.600;10.040;2023-06-10T02:38:53;3.88;;;1.58;;
74042;SDS011;62384;53.600;10.040;2023-06-10T02:41:19;3.30;;;1.25;;
74042;SDS011;62384;53.600;10.040;2023-06-10T02:43:44;4.63;;;1.83;;
74042;SDS011;62384;53.600;10.040;2023-06-10T02:46:09;3.90;;;1.65;;
74042;SDS011;62384;53.600;10.040;2023-06-10T02:48:45;5.22;;;1.48;;
74042;SDS011;62384;53.600;10.040;2023-06-10T02:51:16;2.90;;;1.45;;
74042;SDS011;62384;53.600;10.040;2023-06-10T02:53:41;5.05;;;1.90;;
74042;SDS011;62384;53.600;10.040;2023-06-10T02:56:06;7.63;;;1.70;;
74042;SDS011;62384;53.600;10.040;2023-06-10T02:58:32;3.38;;;1.25;;
74042;SDS011;62384;53.600;10.040;2023-06-10T03:00:57;5.63;;;1.70;;
74042;SDS011;62384;53.600;10.040;2023-06-10T03:03:23;5.50;;;1.42;;
74042;SDS011;62384;53.600;10.040;2023-06-10T03:05:48;12.43;;;2.08;;
74042;SDS011;62384;53.600;10.040;2023-06-10T03:08:14;3.90;;;1.35;;
74042;SDS011;62384;53.600;10.040;2023-06-10T03:10:39;4.03;;;1.30;;
74042;SDS011;62384;53.600;10.040;2023-06-10T03:13:04;3.83;;;1.63;;
74042;SDS011;62384;53.600;10.040;2023-06-10T03:15:30;4.82;;;1.33;;
74042;SDS011;62384;53.600;10.040;2023-06-10T03:17:58;5.22;;;1.63;;
74042;SDS011;62384;53.600;10.040;2023-06-10T03:20:25;4.15;;;1.50;;
74042;SDS011;62384;53.600;10.040;2023-06-10T03:22:50;4.72;;;2.08;;
74042;SDS011;62384;53.600;10.040;2023-06-10T03:25:16;10.23;;;2.30;;
74042;SDS011;62384;53.600;10.040;2023-06-10T03:27:47;3.70;;;1.27;;
74042;SDS011;62384;53.600;10.040;2023-06-10T03:30:13;4.80;;;1.42;;
74042;SDS011;62384;53.600;10.040;2023-06-10T03:32:38;3.58;;;1.45;;
74042;SDS011;62384;53.600;10.040;2023-06-10T03:35:04;3.50;;;1.48;;
74042;SDS011;62384;53.600;10.040;2023-06-10T03:37:29;6.47;;;1.88;;
74042;SDS011;62384;53.600;10.040;2023-06-10T03:39:55;5.45;;;1.40;;
74042;SDS011;62384;53.600;10.040;2023-06-10T03:42:20;3.88;;;1.52;;
74042;SDS011;62384;53.600;10.040;2023-06-10T03:44:48;7.22;;;1.65;;
74042;SDS011;62384;53.600;10.040;2023-06-10T03:47:13;3.53;;;1.20;;
74042;SDS011;62384;53.600;10.040;2023-06-10T03:49:38;5.82;;;1.35;;
74042;SDS011;62384;53.600;10.040;2023-06-10T03:52:05;5.18;;;1.10;;
74042;SDS011;62384;53.600;10.040;2023-06-10T03:54:31;3.90;;;1.23;;
74042;SDS011;62384;53.600;10.040;2023-06-10T03:56:56;3.50;;;1.13;;
74042;SDS011;62384;53.600;10.040;2023-06-10T03:59:22;2.90;;;1.30;;
74042;SDS011;62384;53.600;10.040;2023-06-10T04:01:47;3.90;;;1.17;;
74042;SDS011;62384;53.600;10.040;2023-06-10T04:04:15;5.22;;;1.20;;
74042;SDS011;62384;53.600;10.040;2023-06-10T04:06:47;6.13;;;1.75;;
74042;SDS011;62384;53.600;10.040;2023-06-10T04:09:13;5.38;;;1.33;;
74042;SDS011;62384;53.600;10.040;2023-06-10T04:11:38;3.55;;;1.25;;
74042;SDS011;62384;53.600;10.040;2023-06-10T04:14:04;6.57;;;2.80;;
74042;SDS011;62384;53.600;10.040;2023-06-10T04:16:30;3.50;;;1.40;;
74042;SDS011;62384;53.600;10.040;2023-06-10T04:18:55;4.40;;;1.27;;
74042;SDS011;62384;53.600;10.040;2023-06-10T04:21:26;2.63;;;1.00;;
74042;SDS011;62384;53.600;10.040;2023-06-10T04:23:52;5.30;;;1.25;;
74042;SDS011;62384;53.600;10.040;2023-06-10T04:26:17;7.63;;;1.52;;
74042;SDS011;62384;53.600;10.040;2023-06-10T04:28:43;3.47;;;1.40;;
74042;SDS011;62384;53.600;10.040;2023-06-10T04:31:09;3.65;;;1.10;;
74042;SDS011;62384;53.600;10.040;2023-06-10T04:33:34;4.68;;;1.42;;
74042;SDS011;62384;53.600;10.040;2023-06-10T04:36:00;14.48;;;1.80;;
74042;SDS011;62384;53.600;10.040;2023-06-10T04:38:25;4.10;;;1.30;;
74042;SDS011;62384;53.600;10.040;2023-06-10T04:40:51;3.92;;;1.27;;
74042;SDS011;62384;53.600;10.040;2023-06-10T04:43:16;3.95;;;1.20;;
74042;SDS011;62384;53.600;10.040;2023-06-10T04:45:42;6.60;;;1.55;;
74042;SDS011;62384;53.600;10.040;2023-06-10T04:48:10;3.80;;;1.20;;
74042;SDS011;62384;53.600;10.040;2023-06-10T04:50:36;3.72;;;1.42;;
74042;SDS011;62384;53.600;10.040;2023-06-10T04:53:02;8.88;;;1.27;;
74042;SDS011;62384;53.600;10.040;2023-06-10T04:55:33;14.23;;;2.17;;
74042;SDS011;62384;53.600;10.040;2023-06-10T04:58:02;9.13;;;1.60;;
74042;SDS011;62384;53.600;10.040;2023-06-10T05:00:27;5.63;;;1.70;;
74042;SDS011;62384;53.600;10.040;2023-06-10T05:02:55;3.50;;;0.93;;
74042;SDS011;62384;53.600;10.040;2023-06-10T05:05:33;6.15;;;1.90;;
74042;SDS011;62384;53.600;10.040;2023-06-10T05:07:58;5.55;;;1.00;;
74042;SDS011;62384;53.600;10.040;2023-06-10T05:10:23;4.72;;;1.42;;
74042;SDS011;62384;53.600;10.040;2023-06-10T05:12:49;5.10;;;1.48;;
74042;SDS011;62384;53.600;10.040;2023-06-10T05:15:14;6.55;;;1.90;;
74042;SDS011;62384;53.600;10.040;2023-06-10T05:17:39;4.85;;;1.80;;
74042;SDS011;62384;53.600;10.040;2023-06-10T05:20:05;4.70;;;1.10;;
74042;SDS011;62384;53.600;10.040;2023-06-10T05:22:31;3.53;;;1.83;;
74042;SDS011;62384;53.600;10.040;2023-06-10T05:24:56;6.80;;;1.45;;
74042;SDS011;62384;53.600;10.040;2023-06-10T05:27:21;3.05;;;1.00;;
74042;SDS011;62384;53.600;10.040;2023-06-10T05:29:47;5.20;;;1.33;;
74042;SDS011;62384;53.600;10.040;2023-06-10T05:32:12;5.50;;;1.30;;
74042;SDS011;62384;53.600;10.040;2023-06-10T05:34:38;5.00;;;1.00;;
74042;SDS011;62384;53.600;10.040;2023-06-10T05:37:03;5.93;;;1.40;;
74042;SDS011;62384;53.600;10.040;2023-06-10T05:39:35;4.13;;;1.30;;
74042;SDS011;62384;53.600;10.040;2023-06-10T05:42:05;5.30;;;1.00;;
74042;SDS011;62384;53.600;10.040;2023-06-10T05:44:31;7.28;;;1.13;;
74042;SDS011;62384;53.600;10.040;2023-06-10T05:46:57;8.30;;;1.42;;
74042;SDS011;62384;53.600;10.040;2023-06-10T05:49:22;6.50;;;1.92;;
74042;SDS011;62384;53.600;10.040;2023-06-10T05:51:47;8.13;;;1.20;;
74042;SDS011;62384;53.600;10.040;2023-06-10T05:54:13;7.05;;;1.30;;
74042;SDS011;62384;53.600;10.040;2023-06-10T05:56:38;5.63;;;1.20;;
74042;SDS011;62384;53.600;10.040;2023-06-10T05:59:03;5.00;;;1.30;;
74042;SDS011;62384;53.600;10.040;2023-06-10T06:01:28;4.88;;;1.77;;
74042;SDS011;62384;53.600;10.040;2023-06-10T06:03:54;5.05;;;1.05;;
74042;SDS011;62384;53.600;10.040;2023-06-10T06:06:19;4.82;;;1.00;;
74042;SDS011;62384;53.600;10.040;2023-06-10T06:08:45;8.77;;;1.10;;
74042;SDS011;62384;53.600;10.040;2023-06-10T06:11:11;6.22;;;1.50;;
74042;SDS011;62384;53.600;10.040;2023-06-10T06:13:36;3.80;;;0.93;;
74042;SDS011;62384;53.600;10.040;2023-06-10T06:16:02;3.20;;;0.98;;
74042;SDS011;62384;53.600;10.040;2023-06-10T06:18:28;5.25;;;1.15;;
74042;SDS011;62384;53.600;10.040;2023-06-10T06:20:53;7.25;;;1.42;;
74042;SDS011;62384;53.600;10.040;2023-06-10T06:23:18;5.63;;;1.35;;
74042;SDS011;62384;53.600;10.040;2023-06-10T06:25:43;4.03;;;1.10;;
74042;SDS011;62384;53.600;10.040;2023-06-10T06:28:09;4.43;;;1.05;;
74042;SDS011;62384;53.600;10.040;2023-06-10T06:30:35;5.68;;;0.95;;
74042;SDS011;62384;53.600;10.040;2023-06-10T06:33:07;3.10;;;0.98;;
74042;SDS011;62384;53.600;10.040;2023-06-10T06:35:35;5.00;;;1.30;;
74042;SDS011;62384;53.600;10.040;2023-06-10T06:38:00;2.95;;;1.00;;
74042;SDS011;62384;53.600;10.040;2023-06-10T06:40:25;8.50;;;1.35;;
74042;SDS011;62384;53.600;10.040;2023-06-10T06:42:51;6.70;;;1.17;;
74042;SDS011;62384;53.600;10.040;2023-06-10T06:45:16;5.75;;;1.10;;
74042;SDS011;62384;53.600;10.040;2023-06-10T06:47:42;5.38;;;1.52;;
74042;SDS011;62384;53.600;10.040;2023-06-10T06:50:08;5.40;;;1.00;;
74042;SDS011;62384;53.600;10.040;2023-06-10T06:52:33;6.05;;;1.30;;
74042;SDS011;62384;53.600;10.040;2023-06-10T06:54:59;3.97;;;1.02;;
74042;SDS011;62384;53.600;10.040;2023-06-10T06:57:24;7.35;;;1.58;;
74042;SDS011;62384;53.600;10.040;2023-06-10T06:59:49;6.07;;;1.30;;
74042;SDS011;62384;53.600;10.040;2023-06-10T07:02:14;2.65;;;1.00;;
74042;SDS011;62384;53.600;10.040;2023-06-10T07:04:40;4.88;;;1.15;;
74042;SDS011;62384;53.600;10.040;2023-06-10T07:07:07;7.10;;;1.52;;
74042;SDS011;62384;53.600;10.040;2023-06-10T07:09:34;4.00;;;0.98;;
74042;SDS011;62384;53.600;10.040;2023-06-10T07:11:59;5.30;;;1.40;;
74042;SDS011;62384;53.600;10.040;2023-06-10T07:14:24;4.65;;;1.42;;
74042;SDS011;62384;53.600;10.040;2023-06-10T07:16:50;8.55;;;1.65;;
74042;SDS011;62384;53.600;10.040;2023-06-10T07:19:15;7.00;;;1.52;;
74042;SDS011;62384;53.600;10.040;2023-06-10T07:21:40;4.43;;;1.45;;
74042;SDS011;62384;53.600;10.040;2023-06-10T07:24:12;5.97;;;1.52;;
74042;SDS011;62384;53.600;10.040;2023-06-10T07:26:37;2.83;;;1.30;;
74042;SDS011;62384;53.600;10.040;2023-06-10T07:29:02;7.22;;;1.27;;
74042;SDS011;62384;53.600;10.040;2023-06-10T07:31:28;11.20;;;1.38;;
74042;SDS011;62384;53.600;10.040;2023-06-10T07:33:53;5.40;;;1.60;;
74042;SDS011;62384;53.600;10.040;2023-06-10T07:36:27;2.58;;;0.95;;
74042;SDS011;62384;53.600;10.040;2023-06-10T07:39:02;5.47;;;1.10;;
74042;SDS011;62384;53.600;10.040;2023-06-10T07:44:45;5.35;;;1.25;;
74042;SDS011;62384;53.600;10.040;2023-06-10T07:47:10;5.25;;;1.13;;
74042;SDS011;62384;53.600;10.040;2023-06-10T07:49:37;2.95;;;1.52;;
74042;SDS011;62384;53.600;10.040;2023-06-10T07:52:02;4.70;;;1.45;;
74042;SDS011;62384;53.600;10.040;2023-06-10T07:54:28;4.95;;;1.50;;
74042;SDS011;62384;53.600;10.040;2023-06-10T07:56:58;2.70;;;1.35;;
74042;SDS011;62384;53.600;10.040;2023-06-10T07:59:24;5.45;;;1.35;;
74042;SDS011;62384;53.600;10.040;2023-06-10T08:01:51;6.82;;;1.50;;
74042;SDS011;62384;53.600;10.040;2023-06-10T08:04:16;6.72;;;1.55;;
74042;SDS011;62384;53.600;10.040;2023-06-10T08:06:47;4.65;;;0.98;;
74042;SDS011;62384;53.600;10.040;2023-06-10T08:09:12;5.20;;;1.33;;
74042;SDS011;62384;53.600;10.040;2023-06-10T08:11:37;6.82;;;1.70;;
74042;SDS011;62384;53.600;10.040;2023-06-10T08:14:03;5.35;;;1.80;;
74042;SDS011;62384;53.600;10.040;2023-06-10T08:16:28;8.85;;;1.65;;
74042;SDS011;62384;53.600;10.040;2023-06-10T08:21:49;5.47;;;1.75;;
74042;SDS011;62384;53.600;10.040;2023-06-10T08:24:14;4.55;;;1.95;;
74042;SDS011;62384;53.600;10.040;2023-06-10T08:26:42;8.07;;;2.38;;
74042;SDS011;62384;53.600;10.040;2023-06-10T08:29:08;4.57;;;1.63;;
74042;SDS011;62384;53.600;10.040;2023-06-10T08:31:33;5.53;;;1.60;;
74042;SDS011;62384;53.600;10.040;2023-06-10T08:34:01;8.27;;;1.40;;
74042;SDS011;62384;53.600;10.040;2023-06-10T08:42:33;7.93;;;1.92;;
74042;SDS011;62384;53.600;10.040;2023-06-10T08:45:04;4.35;;;1.65;;
74042;SDS011;62384;53.600;10.040;2023-06-10T08:47:30;4.53;;;1.55;;
74042;SDS011;62384;53.600;10.040;2023-06-10T08:50:03;9.73;;;1.67;;
74042;SDS011;62384;53.600;10.040;2023-06-10T08:52:29;5.30;;;1.70;;
74042;SDS011;62384;53.600;10.040;2023-06-10T08:57:47;8.85;;;2.00;;
74042;SDS011;62384;53.600;10.040;2023-06-10T09:00:13;5.82;;;1.80;;
74042;SDS011;62384;53.600;10.040;2023-06-10T09:02:41;6.22;;;1.90;;
74042;SDS011;62384;53.600;10.040;2023-06-10T09:05:08;6.68;;;1.95;;
74042;SDS011;62384;53.600;10.040;2023-06-10T09:07:34;6.05;;;1.95;;
74042;SDS011;62384;53.600;10.040;2023-06-10T09:10:01;3.88;;;1.73;;
74042;SDS011;62384;53.600;10.040;2023-06-10T09:12:28;4.80;;;1.85;;
74042;SDS011;62384;53.600;10.040;2023-06-10T09:14:54;9.43;;;3.53;;
74042;SDS011;62384;53.600;10.040;2023-06-10T09:17:20;4.00;;;1.75;;
74042;SDS011;62384;53.600;10.040;2023-06-10T09:19:45;6.78;;;2.17;;
74042;SDS011;62384;53.600;10.040;2023-06-10T09:22:11;6.15;;;2.17;;
74042;SDS011;62384;53.600;10.040;2023-06-10T09:24:36;8.48;;;2.72;;
74042;SDS011;62384;53.600;10.040;2023-06-10T09:27:07;4.05;;;2.03;;
74042;SDS011;62384;53.600;10.040;2023-06-10T09:32:23;4.90;;;1.65;;
74042;SDS011;62384;53.600;10.040;2023-06-10T09:34:49;5.45;;;1.80;;
74042;SDS011;62384;53.600;10.040;2023-06-10T09:37:22;6.72;;;1.98;;
74042;SDS011;62384;53.600;10.040;2023-06-10T09:40:07;9.27;;;1.88;;
74042;SDS011;62384;53.600;10.040;2023-06-10T09:42:34;8.68;;;2.10;;
74042;SDS011;62384;53.600;10.040;2023-06-10T09:45:00;3.58;;;1.70;;
74042;SDS011;62384;53.600;10.040;2023-06-10T09:47:29;6.53;;;1.88;;
74042;SDS011;62384;53.600;10.040;2023-06-10T09:52:47;4.60;;;1.77;;
74042;SDS011;62384;53.600;10.040;2023-06-10T09:55:13;7.88;;;2.20;;
74042;SDS011;62384;53.600;10.040;2023-06-10T09:57:39;8.48;;;3.38;;
74042;SDS011;62384;53.600;10.040;2023-06-10T10:00:06;3.55;;;1.67;;
74042;SDS011;62384;53.600;10.040;2023-06-10T10:02:43;7.38;;;2.17;;
74042;SDS011;62384;53.600;10.040;2023-06-10T10:05:15;7.72;;;1.88;;
74042;SDS011;62384;53.600;10.040;2023-06-10T10:07:42;9.27;;;2.00;;
74042;SDS011;62384;53.600;10.040;2023-06-10T10:10:09;10.40;;;2.25;;
74042;SDS011;62384;53.600;10.040;2023-06-10T10:12:39;4.68;;;1.77;;
74042;SDS011;62384;53.600;10.040;2023-06-10T10:15:09;8.68;;;1.80;;
74042;SDS011;62384;53.600;10.040;2023-06-10T10:17:46;4.55;;;1.73;;
74042;SDS011;62384;53.600;10.040;2023-06-10T10:20:16;11.38;;;2.25;;
74042;SDS011;62384;53.600;10.040;2023-06-10T10:22:45;6.70;;;2.45;;
74042;SDS011;62384;53.600;10.040;2023-06-10T10:25:16;6.80;;;2.33;;
74042;SDS011;62384;53.600;10.040;2023-06-10T10:28:41;4.40;;;1.60;;
74042;SDS011;62384;53.600;10.040;2023-06-10T10:31:23;5.55;;;1.98;;
74042;SDS011;62384;53.600;10.040;2023-06-10T10:33:52;4.38;;;1.48;;
74042;SDS011;62384;53.600;10.040;2023-06-10T10:36:21;4.18;;;1.45;;
74042;SDS011;62384;53.600;10.040;2023-06-10T10:38:47;4.07;;;1.80;;
74042;SDS011;62384;53.600;10.040;2023-06-10T10:41:14;5.25;;;1.73;;
74042;SDS011;62384;53.600;10.040;2023-06-10T10:43:45;7.25;;;1.90;;
74042;SDS011;62384;53.600;10.040;2023-06-10T10:46:16;7.13;;;1.55;;
74042;SDS011;62384;53.600;10.040;2023-06-10T10:48:54;4.68;;;2.00;;
74042;SDS011;62384;53.600;10.040;2023-06-10T10:51:22;6.35;;;2.05;;
74042;SDS011;62384;53.600;10.040;2023-06-10T10:54:12;6.10;;;1.63;;
74042;SDS011;62384;53.600;10.040;2023-06-10T10:56:38;8.65;;;1.60;;
74042;SDS011;62384;53.600;10.040;2023-06-10T10:59:07;8.18;;;2.00;;
74042;SDS011;62384;53.600;10.040;2023-06-10T11:01:42;4.00;;;1.80;;
74042;SDS011;62384;53.600;10.040;2023-06-10T11:04:13;4.10;;;1.77;;
74042;SDS011;62384;53.600;10.040;2023-06-10T11:06:51;2.78;;;1.33;;
74042;SDS011;62384;53.600;10.040;2023-06-10T11:09:31;6.90;;;1.95;;
74042;SDS011;62384;53.600;10.040;2023-06-10T11:11:57;5.88;;;2.08;;
74042;SDS011;62384;53.600;10.040;2023-06-10T11:14:26;4.63;;;1.95;;
74042;SDS011;62384;53.600;10.040;2023-06-10T11:16:58;3.92;;;1.77;;
74042;SDS011;62384;53.600;10.040;2023-06-10T11:19:36;4.93;;;1.50;;
74042;SDS011;62384;53.600;10.040;2023-06-10T11:22:05;4.50;;;2.00;;
74042;SDS011;62384;53.600;10.040;2023-06-10T11:24:50;6.03;;;2.22;;
74042;SDS011;62384;53.600;10.040;2023-06-10T11:30:34;3.10;;;1.67;;
74042;SDS011;62384;53.600;10.040;2023-06-10T11:33:00;4.32;;;2.25;;
74042;SDS011;62384;53.600;10.040;2023-06-10T11:35:25;5.38;;;1.90;;
74042;SDS011;62384;53.600;10.040;2023-06-10T11:37:52;4.88;;;2.05;;
74042;SDS011;62384;53.600;10.040;2023-06-10T11:40:17;4.03;;;2.00;;
74042;SDS011;62384;53.600;10.040;2023-06-10T11:42:42;12.50;;;2.13;;
74042;SDS011;62384;53.600;10.040;2023-06-10T11:45:09;6.07;;;2.30;;
74042;SDS011;62384;53.600;10.040;2023-06-10T11:47:35;4.32;;;1.88;;
74042;SDS011;62384;53.600;10.040;2023-06-10T11:50:27;5.75;;;1.92;;
74042;SDS011;62384;53.600;10.040;2023-06-10T11:53:08;8.88;;;1.88;;
74042;SDS011;62384;53.600;10.040;2023-06-10T11:58:23;5.47;;;1.65;;
74042;SDS011;62384;53.600;10.040;2023-06-10T12:00:58;4.07;;;2.28;;
74042;SDS011;62384;53.600;10.040;2023-06-10T12:03:26;5.78;;;2.63;;
74042;SDS011;62384;53.600;10.040;2023-06-10T12:08:20;7.15;;;2.03;;
74042;SDS011;62384;53.600;10.040;2023-06-10T12:10:46;5.47;;;2.13;;
74042;SDS011;62384;53.600;10.040;2023-06-10T12:13:12;5.85;;;2.38;;
74042;SDS011;62384;53.600;10.040;2023-06-10T12:15:37;4.78;;;2.00;;
74042;SDS011;62384;53.600;10.040;2023-06-10T12:18:02;4.10;;;1.97;;
74042;SDS011;62384;53.600;10.040;2023-06-10T12:20:37;6.32;;;2.20;;
74042;SDS011;62384;53.600;10.040;2023-06-10T12:23:08;4.40;;;2.10;;
74042;SDS011;62384;53.600;10.040;2023-06-10T12:25:37;4.75;;;2.20;;
74042;SDS011;62384;53.600;10.040;2023-06-10T12:28:03;8.52;;;2.65;;
74042;SDS011;62384;53.600;10.040;2023-06-10T12:30:29;6.53;;;2.67;;
74042;SDS011;62384;53.600;10.040;2023-06-10T12:32:59;4.60;;;2.70;;
74042;SDS011;62384;53.600;10.040;2023-06-10T12:35:28;5.30;;;2.55;;
74042;SDS011;62384;53.600;10.040;2023-06-10T12:37:57;4.30;;;2.42;;
74042;SDS011;62384;53.600;10.040;2023-06-10T12:40:28;5.82;;;2.33;;
74042;SDS011;62384;53.600;10.040;2023-06-10T12:43:03;5.95;;;2.25;;
74042;SDS011;62384;53.600;10.040;2023-06-10T12:45:35;5.87;;;2.33;;
74042;SDS011;62384;53.600;10.040;2023-06-10T12:48:09;4.22;;;2.30;;
74042;SDS011;62384;53.600;10.040;2023-06-10T12:50:50;6.05;;;2.72;;
74042;SDS011;62384;53.600;10.040;2023-06-10T12:53:19;3.97;;;2.40;;
74042;SDS011;62384;53.600;10.040;2023-06-10T12:55:45;4.05;;;2.42;;
74042;SDS011;62384;53.600;10.040;2023-06-10T12:58:12;7.28;;;2.90;;
74042;SDS011;62384;53.600;10.040;2023-06-10T13:00:38;7.32;;;2.90;;
74042;SDS011;62384;53.600;10.040;2023-06-10T13:03:04;6.07;;;3.05;;
74042;SDS011;62384;53.600;10.040;2023-06-10T13:05:48;4.68;;;2.55;;
74042;SDS011;62384;53.600;10.040;2023-06-10T13:08:14;5.22;;;2.50;;
74042;SDS011;62384;53.600;10.040;2023-06-10T13:10:44;5.53;;;2.87;;
74042;SDS011;62384;53.600;10.040;2023-06-10T13:13:09;5.72;;;2.70;;
74042;SDS011;62384;53.600;10.040;2023-06-10T13:15:34;9.18;;;2.63;;
74042;SDS011;62384;53.600;10.040;2023-06-10T13:18:03;7.75;;;2.80;;
74042;SDS011;62384;53.600;10.040;2023-06-10T13:20:28;7.38;;;2.83;;
74042;SDS011;62384;53.600;10.040;2023-06-10T13:22:54;6.57;;;2.35;;
74042;SDS011;62384;53.600;10.040;2023-06-10T13:25:20;4.80;;;2.22;;
74042;SDS011;62384;53.600;10.040;2023-06-10T13:27:46;5.00;;;2.63;;
74042;SDS011;62384;53.600;10.040;2023-06-10T13:30:12;2.78;;;2.03;;
74042;SDS011;62384;53.600;10.040;2023-06-10T13:32:38;7.50;;;2.88;;
74042;SDS011;62384;53.600;10.040;2023-06-10T13:37:59;5.00;;;2.53;;
74042;SDS011;62384;53.600;10.040;2023-06-10T13:40:26;7.78;;;2.58;;
74042;SDS011;62384;53.600;10.040;2023-06-10T13:42:51;10.75;;;1.90;;
74042;SDS011;62384;53.600;10.040;2023-06-10T13:45:17;6.65;;;2.17;;
74042;SDS011;62384;53.600;10.040;2023-06-10T13:51:04;3.30;;;2.22;;
74042;SDS011;62384;53.600;10.040;2023-06-10T13:53:30;8.77;;;2.35;;
74042;SDS011;62384;53.600;10.040;2023-06-10T13:55:55;5.85;;;1.80;;
74042;SDS011;62384;53.600;10.040;2023-06-10T13:58:25;6.70;;;1.70;;
74042;SDS011;62384;53.600;10.040;2023-06-10T14:00:51;4.57;;;2.00;;
74042;SDS011;62384;53.600;10.040;2023-06-10T14:03:28;6.18;;;1.85;;
74042;SDS011;62384;53.600;10.040;2023-06-10T14:06:12;5.13;;;1.80;;
74042;SDS011;62384;53.600;10.040;2023-06-10T14:08:43;3.35;;;1.70;;
74042;SDS011;62384;53.600;10.040;2023-06-10T14:11:09;7.32;;;1.98;;
74042;SDS011;62384;53.600;10.040;2023-06-10T14:13:43;6.65;;;2.38;;
74042;SDS011;62384;53.600;10.040;2023-06-10T14:16:09;9.05;;;1.83;;
74042;SDS011;62384;53.600;10.040;2023-06-10T14:18:34;5.95;;;2.25;;
74042;SDS011;62384;53.600;10.040;2023-06-10T14:23:49;4.90;;;1.88;;
74042;SDS011;62384;53.600;10.040;2023-06-10T14:26:16;5.32;;;1.52;;
74042;SDS011;62384;53.600;10.040;2023-06-10T14:28:46;7.32;;;1.75;;
74042;SDS011;62384;53.600;10.040;2023-06-10T14:31:11;8.70;;;2.42;;
74042;SDS011;62384;53.600;10.040;2023-06-10T14:33:36;6.50;;;2.03;;
74042;SDS011;62384;53.600;10.040;2023-06-10T14:36:02;5.75;;;2.00;;
74042;SDS011;62384;53.600;10.040;2023-06-10T14:41:21;3.63;;;2.03;;
74042;SDS011;62384;53.600;10.040;2023-06-10T14:43:47;5.90;;;1.77;;
74042;SDS011;62384;53.600;10.040;2023-06-10T14:46:12;8.15;;;2.08;;
74042;SDS011;62384;53.600;10.040;2023-06-10T14:48:37;6.80;;;1.70;;
74042;SDS011;62384;53.600;10.040;2023-06-10T14:51:04;5.05;;;1.90;;
74042;SDS011;62384;53.600;10.040;2023-06-10T14:53:35;5.95;;;2.15;;
74042;SDS011;62384;53.600;10.040;2023-06-10T14:56:00;5.03;;;2.08;;
74042;SDS011;62384;53.600;10.040;2023-06-10T14:58:44;6.22;;;2.08;;
74042;SDS011;62384;53.600;10.040;2023-06-10T15:01:09;10.75;;;2.13;;
74042;SDS011;62384;53.600;10.040;2023-06-10T15:03:34;5.25;;;2.15;;
74042;SDS011;62384;53.600;10.040;2023-06-10T15:06:00;3.72;;;1.83;;
74042;SDS011;62384;53.600;10.040;2023-06-10T15:08:26;5.65;;;2.13;;
74042;SDS011;62384;53.600;10.040;2023-06-10T15:10:55;5.20;;;2.42;;
74042;SDS011;62384;53.600;10.040;2023-06-10T15:16:09;6.22;;;2.15;;
74042;SDS011;62384;53.600;10.040;2023-06-10T15:18:35;12.38;;;2.10;;
74042;SDS011;62384;53.600;10.040;2023-06-10T15:21:00;6.38;;;2.00;;
74042;SDS011;62384;53.600;10.040;2023-06-10T15:23:25;7.57;;;2.17;;
74042;SDS011;62384;53.600;10.040;2023-06-10T15:25:50;6.88;;;2.30;;